map of MEE home
MEE - Airport
Location
City:  Maré, Loyalty Islands, New Caledonia
Name:La Roche
ICAO:NWWR
IATA:MEE

Details
Type:Airport (Aerodrome, Airfield)
Latitude:21°28'54"S (-21.481677)
Longitude:168°02'15"E (168.037508)
Datum:WGS 1984
Elevation:141 ft (43 m)
Variation:12.49°E (WMM2015 magnetic declination)
0.03° annual change
Runways:1
Longest:3281 × 82 ft (1000 × 25 m), paved

Time
Time Zone:UTC+11
Local Time:

Weather
TAF:NWWR 201100Z 2012/2112 11008KT 9999 SCT035
TEMPO 2012/2024 SHRA

Related Locations
Nearby:
Farthest:CGT: 12358 mi / 19888 km
Chinguetti [Chinguetti Airport], MR

Find:

   beyond  
but within

Other Information
Maps:
NOTAMs:
Links:
Sources:

  
  • flag of New Caledonia
  

Sectional Chart

Flight Planning
at skyvector.com

Satellite Image

Google Maps Satellite view

 

Copyright © 2004-2018 Karl L. Swartz. All rights reserved.
The Great Circle Mapper name and logo are trademarks of the Great Circle Mapper.
All other trademarks mentioned herein belong to their respective owners.
Please see credits for attibutions and further copyright information.

  Follow gcmap on Facebook Follow gcmap on Twitter Follow gcmap on Google+ GCmap on LinkedIn

hCard Microformat

Geo Microformat